Ostby, North Dakota
Current Conditions -  °F | °C
As of 12:15 AM on Thursday 29 Jan 2015 (Local Time) from KRUG Reporting Station
Overcast Overcast  
Wind Chill: -13°   Ceiling: 1500
Heat Index: -5°   Visibility: 10mi
Dew Point: -6°   Wind: 18mph
Humidity: 93%   Direction: 320°NW
Pressure: 30.21"   Gusts: NA
Location:  48.5496°N, 100.255°W
Report Text: KRUG 290615Z AUTO 32016KT 10SM OVC015 M05/M06 A3021 RMK AO2
Loading
Personal Weather Stations






























Interactive Weather Map New forecast layout! Learn more

10-Day Weather Forecast

Advertisements
Track Severe Weather on mobile